Time;durP1;ratioP1;P1;durP2;ratioP2;P2;SDS_P1;SDS_P2;PMS_P1;PMS_P2;Temp;Humidity;BMP_temperature;BMP_pressure;BME280_temperature;BME280_humidity;BME280_pressure;Samples;Min_cycle;Max_cycle;Signal;HPM_P1;HPM_P2
2022/09/02 00:01:28;;;;;;;0.47;0.47;;;21.30;63.20;;;;;;5017888;28;20110;-91
2022/09/02 00:04:00;;;;;;;1.17;0.77;;;21.30;63.80;;;;;;5016768;28;20022;-91
2022/09/02 00:06:30;;;;;;;0.98;0.60;;;21.30;64.40;;;;;;5017935;28;20030;-91
2022/09/02 00:08:59;;;;;;;1.05;0.63;;;21.30;64.90;;;;;;5017973;28;20018;-91
2022/09/02 00:11:29;;;;;;;1.30;0.90;;;21.20;64.60;;;;;;5001835;28;20034;-91
2022/09/02 00:13:56;;;;;;;6.38;0.88;;;21.20;64.30;;;;;;5019135;28;20022;-91
2022/09/02 00:16:23;;;;;;;1.98;0.70;;;21.20;64.50;;;;;;5018140;28;20450;-90
2022/09/02 00:18:50;;;;;;;5.93;0.85;;;21.10;64.10;;;;;;5015527;28;20014;-85
2022/09/02 00:21:18;;;;;;;2.40;0.80;;;21.10;63.60;;;;;;4998797;28;20023;-85
2022/09/02 00:23:44;;;;;;;1.30;0.85;;;21.10;63.70;;;;;;4986373;28;20037;-84
2022/09/02 00:26:12;;;;;;;0.93;0.63;;;21.00;64.30;;;;;;4982601;28;20094;-85
2022/09/02 00:28:38;;;;;;;0.88;0.57;;;21.00;64.60;;;;;;4995795;28;20033;-85
2022/09/02 00:31:44;;;;;;;2.17;0.90;;;21.00;65.00;;;;;;4998678;28;20022;-84
2022/09/02 00:34:11;;;;;;;2.55;0.90;;;21.00;65.10;;;;;;5010026;28;20022;-85
2022/09/02 00:36:37;;;;;;;1.05;0.70;;;20.90;64.20;;;;;;4998721;28;20026;-85
2022/09/02 00:39:06;;;;;;;1.20;0.80;;;20.90;63.80;;;;;;4998825;28;20467;-85
2022/09/02 00:41:33;;;;;;;1.15;0.60;;;20.90;64.00;;;;;;5000375;28;20034;-85
2022/09/02 00:44:02;;;;;;;2.28;0.68;;;20.80;64.00;;;;;;4998401;28;20017;-84
2022/09/02 00:49:53;;;;;;;2.47;0.70;;;20.80;64.50;;;;;;5013126;28;20044;-85
2022/09/02 00:52:40;;;;;;;2.38;0.60;;;20.70;64.20;;;;;;5014345;28;20046;-85
2022/09/02 00:55:14;;;;;;;1.90;0.80;;;20.70;64.20;;;;;;5015884;28;20038;-85
2022/09/02 00:57:44;;;;;;;1.70;0.80;;;20.70;64.30;;;;;;5014587;28;20018;-84
2022/09/02 01:00:23;;;;;;;2.75;1.00;;;20.70;64.40;;;;;;4999971;28;20022;-84
2022/09/02 01:02:52;;;;;;;2.28;0.85;;;20.60;65.00;;;;;;5005044;28;20026;-85
2022/09/02 01:05:20;;;;;;;2.60;1.00;;;20.60;65.10;;;;;;5014243;28;20022;-85
2022/09/02 01:07:46;;;;;;;1.35;0.73;;;20.60;65.30;;;;;;5014378;28;20030;-85
2022/09/02 01:10:19;;;;;;;1.23;0.60;;;20.60;65.50;;;;;;4998062;28;20029;-85
2022/09/02 01:12:44;;;;;;;1.67;0.93;;;20.50;65.40;;;;;;5014346;28;20026;-85
2022/09/02 01:15:11;;;;;;;2.83;0.70;;;20.50;65.00;;;;;;4997861;28;20030;-84
2022/09/02 01:17:46;;;;;;;3.58;0.90;;;20.50;64.40;;;;;;4998068;28;20049;-84
2022/09/02 01:20:16;;;;;;;1.10;0.80;;;20.50;64.30;;;;;;5014103;28;20026;-84
2022/09/02 01:22:44;;;;;;;2.90;0.80;;;20.50;64.40;;;;;;5015572;28;20379;-89
2022/09/02 01:25:18;;;;;;;1.20;0.90;;;20.40;64.40;;;;;;5015938;28;20018;-91
2022/09/02 01:27:44;;;;;;;1.58;0.65;;;20.40;64.40;;;;;;5016079;28;20018;-84
2022/09/02 01:30:12;;;;;;;1.48;0.68;;;20.40;64.50;;;;;;4994602;28;20041;-84
2022/09/02 01:32:51;;;;;;;2.47;0.82;;;20.30;63.90;;;;;;4997287;28;20107;-84
2022/09/02 01:35:17;;;;;;;1.80;0.93;;;20.30;64.00;;;;;;4997494;28;20030;-84
2022/09/02 01:37:45;;;;;;;2.28;0.77;;;20.30;64.40;;;;;;5013737;28;20018;-83
2022/09/02 01:40:14;;;;;;;1.55;0.70;;;20.30;64.80;;;;;;4997508;28;20121;-84
2022/09/02 01:42:44;;;;;;;2.83;1.13;;;20.20;65.00;;;;;;5013715;28;20387;-84
2022/09/02 01:45:10;;;;;;;1.80;0.60;;;20.20;65.00;;;;;;5013416;28;20091;-83
2022/09/02 01:47:36;;;;;;;3.45;0.80;;;20.20;64.80;;;;;;4998637;28;20354;-84
2022/09/02 01:50:04;;;;;;;1.33;0.85;;;20.20;64.70;;;;;;4994538;28;20479;-84
2022/09/02 01:52:30;;;;;;;1.20;0.55;;;20.20;64.10;;;;;;5000707;28;20096;-84
2022/09/02 01:54:56;;;;;;;1.48;0.70;;;20.10;63.80;;;;;;5002562;28;20045;-83
2022/09/02 01:57:23;;;;;;;1.25;0.88;;;20.10;64.10;;;;;;4996847;28;20521;-83
2022/09/02 01:59:50;;;;;;;0.98;0.85;;;20.10;63.80;;;;;;5013349;28;20028;-85
2022/09/02 02:02:34;;;;;;;2.35;0.80;;;20.10;63.90;;;;;;4973608;28;20030;-84
2022/09/02 02:04:59;;;;;;;2.50;0.60;;;20.10;63.70;;;;;;4991077;28;20034;-84
2022/09/02 02:07:25;;;;;;;4.72;1.30;;;20.00;63.50;;;;;;4964659;28;20076;-84
2022/09/02 02:09:51;;;;;;;1.00;0.60;;;20.00;63.10;;;;;;4996844;28;20037;-84
2022/09/02 02:12:18;;;;;;;2.03;0.82;;;19.90;62.80;;;;;;4964755;28;20022;-85
2022/09/02 02:14:44;;;;;;;1.30;0.60;;;19.90;63.30;;;;;;4996762;28;20471;-84
2022/09/02 02:17:10;;;;;;;1.42;0.70;;;19.90;63.20;;;;;;4983009;28;20528;-84
2022/09/02 02:19:38;;;;;;;1.63;0.68;;;19.90;63.50;;;;;;4964613;28;20332;-83
2022/09/02 02:22:04;;;;;;;0.88;0.70;;;19.90;63.50;;;;;;5014279;28;20124;-83
2022/09/02 02:24:30;;;;;;;0.98;0.60;;;19.90;63.80;;;;;;4980507;28;20125;-84
2022/09/02 02:26:57;;;;;;;2.53;0.90;;;19.90;63.50;;;;;;5014304;28;20026;-85
2022/09/02 02:29:23;;;;;;;1.38;0.80;;;19.80;62.90;;;;;;4978503;28;20069;-90
2022/09/02 02:31:57;;;;;;;0.73;0.50;;;19.80;62.80;;;;;;4965534;28;20029;-83
2022/09/02 02:34:23;;;;;;;2.60;0.68;;;19.80;62.80;;;;;;4980439;28;20064;-83
2022/09/02 02:36:49;;;;;;;1.75;0.70;;;19.80;62.90;;;;;;4996823;28;20018;-83
2022/09/02 02:39:15;;;;;;;1.50;0.55;;;19.80;62.70;;;;;;4993764;28;20053;-83
2022/09/02 02:41:41;;;;;;;2.53;0.90;;;19.70;62.80;;;;;;4996545;28;20038;-84
2022/09/02 02:44:07;;;;;;;1.58;0.80;;;19.70;62.80;;;;;;4993071;28;20461;-83
2022/09/02 02:46:34;;;;;;;4.82;1.02;;;19.70;63.00;;;;;;5009225;28;20029;-83
2022/09/02 02:49:00;;;;;;;0.98;0.60;;;19.70;63.30;;;;;;4964543;28;20038;-84
2022/09/02 02:51:26;;;;;;;0.70;0.52;;;19.70;63.60;;;;;;4993741;28;20129;-84
2022/09/02 02:53:52;;;;;;;1.27;0.75;;;19.70;63.40;;;;;;4976546;28;20555;-84
2022/09/02 02:56:25;;;;;;;2.40;0.70;;;19.70;63.90;;;;;;4990348;28;20085;-83
2022/09/02 02:58:51;;;;;;;4.15;0.85;;;19.60;64.10;;;;;;4993094;28;20030;-84
2022/09/02 03:01:16;;;;;;;0.95;0.55;;;19.60;64.10;;;;;;4993314;28;20034;-83
2022/09/02 03:03:43;;;;;;;1.35;0.60;;;19.60;63.80;;;;;;4989679;28;20110;-83
2022/09/02 03:06:09;;;;;;;1.83;0.47;;;19.60;64.40;;;;;;4984427;28;20022;-83
2022/09/02 03:08:36;;;;;;;2.85;0.88;;;19.60;64.10;;;;;;5009128;28;20041;-83
2022/09/02 03:11:04;;;;;;;1.92;0.77;;;19.60;63.80;;;;;;4973853;28;20066;-83
2022/09/02 03:13:31;;;;;;;3.05;1.05;;;19.60;63.70;;;;;;4988458;28;20480;-83
2022/09/02 03:15:57;;;;;;;1.52;0.75;;;19.50;63.50;;;;;;4994021;28;20042;-84
2022/09/02 03:18:22;;;;;;;0.90;0.70;;;19.50;63.10;;;;;;4993032;28;20380;-84
2022/09/02 03:20:48;;;;;;;0.80;0.63;;;19.40;63.10;;;;;;4976665;28;20022;-84
2022/09/02 03:23:14;;;;;;;2.10;1.00;;;19.40;63.40;;;;;;5009014;28;20483;-84
2022/09/02 03:25:42;;;;;;;2.00;0.65;;;19.40;63.40;;;;;;4994438;28;20023;-84
2022/09/02 03:28:23;;;;;;;1.92;0.40;;;19.40;63.50;;;;;;4992680;28;20052;-85
2022/09/02 03:30:49;;;;;;;;;;;19.40;63.60;;;;;;4993180;28;20086;-84
2022/09/02 03:33:14;;;;;;;0.65;0.55;;;19.30;64.10;;;;;;4992555;28;19914;-84
2022/09/02 03:35:42;;;;;;;1.90;0.73;;;19.30;63.70;;;;;;4990572;28;20383;-85
2022/09/02 03:38:09;;;;;;;2.05;0.70;;;19.30;63.50;;;;;;5006928;28;20483;-85
2022/09/02 03:40:34;;;;;;;2.33;0.88;;;19.30;63.20;;;;;;4992456;28;20050;-85
2022/09/02 03:43:00;;;;;;;3.47;0.95;;;19.30;63.30;;;;;;4992947;28;20380;-86
2022/09/02 03:45:27;;;;;;;1.35;0.60;;;19.20;63.50;;;;;;4989374;28;20476;-85
2022/09/02 03:47:53;;;;;;;3.65;0.50;;;19.20;63.50;;;;;;4992955;28;20026;-85
2022/09/02 03:50:31;;;;;;;1.65;0.80;;;19.20;63.40;;;;;;5008963;28;20023;-84
2022/09/02 03:52:58;;;;;;;1.33;0.70;;;19.20;63.70;;;;;;5008579;28;20134;-85
2022/09/02 03:55:24;;;;;;;2.30;1.10;;;19.20;63.70;;;;;;5008822;28;20105;-86
2022/09/02 03:57:50;;;;;;;1.95;0.50;;;19.10;64.00;;;;;;4992393;28;20030;-86
2022/09/02 04:00:18;;;;;;;1.88;0.80;;;19.10;63.80;;;;;;4989212;28;20034;-85
2022/09/02 04:02:44;;;;;;;2.92;0.88;;;19.10;64.30;;;;;;4987643;28;20154;-85
2022/09/02 04:05:11;;;;;;;2.50;0.77;;;19.10;64.20;;;;;;4976047;28;20117;-85
2022/09/02 04:07:38;;;;;;;2.72;0.93;;;19.10;64.20;;;;;;5009890;28;20109;-86
2022/09/02 04:10:05;;;;;;;2.03;1.00;;;19.00;64.00;;;;;;4995909;28;20113;-84
2022/09/02 04:12:31;;;;;;;2.25;0.95;;;19.00;64.00;;;;;;4993010;28;20038;-84
2022/09/02 04:14:57;;;;;;;3.30;0.82;;;19.00;63.90;;;;;;5012300;28;20035;-85
2022/09/02 04:17:22;;;;;;;1.63;0.95;;;19.00;63.30;;;;;;4995791;28;20122;-87
2022/09/02 04:19:48;;;;;;;2.97;0.95;;;19.00;63.10;;;;;;4995806;28;20106;-85
2022/09/02 04:22:21;;;;;;;1.92;0.90;;;19.00;63.20;;;;;;4979751;28;20446;-82
2022/09/02 04:24:47;;;;;;;3.47;0.80;;;18.90;63.50;;;;;;4995710;28;20041;-83
2022/09/02 04:27:12;;;;;;;1.80;0.80;;;18.90;63.20;;;;;;4994997;28;20064;-83
2022/09/02 04:29:38;;;;;;;2.45;0.80;;;18.90;63.10;;;;;;4995640;28;20117;-84
2022/09/02 04:32:07;;;;;;;2.85;0.65;;;18.90;63.40;;;;;;4992918;28;20035;-83
2022/09/02 04:34:32;;;;;;;2.30;0.88;;;18.80;63.10;;;;;;4979981;28;20048;-90
2022/09/02 04:36:58;;;;;;;1.02;0.70;;;18.80;63.90;;;;;;4977355;28;20431;-90
2022/09/02 04:39:24;;;;;;;4.53;1.02;;;18.80;63.20;;;;;;4997425;28;20077;-89
2022/09/02 04:41:50;;;;;;;1.20;0.75;;;18.80;63.10;;;;;;4980475;28;20046;-91
2022/09/02 04:44:15;;;;;;;2.60;0.95;;;18.80;63.00;;;;;;4979961;28;20026;-90
2022/09/02 04:46:41;;;;;;;1.83;0.90;;;18.80;63.20;;;;;;4964276;28;20034;-90
2022/09/02 04:49:16;;;;;;;3.58;1.13;;;18.70;63.40;;;;;;4980154;28;20041;-90
2022/09/02 04:51:41;;;;;;;2.22;0.88;;;18.70;63.30;;;;;;4997077;28;20034;-90
2022/09/02 04:54:07;;;;;;;4.47;1.08;;;18.80;63.30;;;;;;4966601;28;20491;-86
2022/09/02 04:56:33;;;;;;;3.30;0.80;;;18.70;63.30;;;;;;5012667;28;20467;-85
2022/09/02 04:58:59;;;;;;;6.63;1.08;;;18.70;63.20;;;;;;4996414;28;20026;-83
2022/09/02 05:01:29;;;;;;;1.73;1.00;;;18.70;63.30;;;;;;4996254;28;20125;-84
2022/09/02 05:03:55;;;;;;;2.50;1.20;;;18.70;63.70;;;;;;5012935;28;20024;-82
2022/09/02 05:06:27;;;;;;;2.90;1.33;;;18.70;64.00;;;;;;5011411;28;20026;-83
2022/09/02 05:08:55;;;;;;;1.70;0.88;;;18.60;63.90;;;;;;5013551;28;20050;-83
2022/09/02 05:11:27;;;;;;;2.95;1.00;;;18.60;64.00;;;;;;5012274;28;20026;-83
2022/09/02 05:13:55;;;;;;;2.20;0.90;;;18.60;63.70;;;;;;5012371;28;20026;-84
2022/09/02 05:16:35;;;;;;;2.22;0.85;;;18.60;63.70;;;;;;5012188;28;20032;-85
2022/09/02 05:19:02;;;;;;;3.83;1.05;;;18.60;63.80;;;;;;5011639;28;20014;-84
2022/09/02 05:21:29;;;;;;;6.38;0.93;;;18.60;63.60;;;;;;5013253;28;20438;-86
2022/09/02 05:23:56;;;;;;;1.23;0.80;;;18.60;63.60;;;;;;4998082;28;20032;-85
2022/09/02 05:26:23;;;;;;;2.33;0.98;;;18.60;63.80;;;;;;5013804;28;20034;-85
2022/09/02 05:28:49;;;;;;;2.85;0.90;;;18.60;64.00;;;;;;4994056;28;20109;-85
2022/09/02 05:31:17;;;;;;;1.73;0.88;;;18.50;64.50;;;;;;5026397;28;20026;-85
2022/09/02 05:33:45;;;;;;;5.22;1.00;;;18.50;64.60;;;;;;5013637;28;20037;-85
2022/09/02 05:36:14;;;;;;;3.05;0.98;;;18.50;64.40;;;;;;4980246;28;20049;-85
2022/09/02 05:38:41;;;;;;;2.60;1.20;;;18.50;64.50;;;;;;5010050;28;20427;-85
2022/09/02 05:41:09;;;;;;;3.30;1.00;;;18.50;64.50;;;;;;5011939;28;20019;-86
2022/09/02 05:43:36;;;;;;;5.53;0.90;;;18.50;64.30;;;;;;5009555;28;20475;-85
2022/09/02 05:46:05;;;;;;;2.00;0.90;;;18.50;64.10;;;;;;4994096;28;20479;-85
2022/09/02 05:51:15;;;;;;;3.53;0.90;;;18.50;64.00;;;;;;5014476;28;20033;-84
2022/09/02 05:53:41;;;;;;;3.13;1.17;;;18.50;63.90;;;;;;4996423;28;20046;-85
2022/09/02 05:56:07;;;;;;;2.20;0.90;;;18.40;64.00;;;;;;4983692;28;20172;-85
2022/09/02 05:58:32;;;;;;;2.92;1.20;;;18.40;63.80;;;;;;4996109;28;20475;-85
2022/09/02 06:00:58;;;;;;;4.43;1.25;;;18.40;64.00;;;;;;5011578;28;20072;-85
2022/09/02 06:03:24;;;;;;;1.33;0.75;;;18.40;63.90;;;;;;4987272;28;20092;-85
2022/09/02 06:05:57;;;;;;;2.78;0.98;;;18.40;63.80;;;;;;4996928;28;20463;-85
2022/09/02 06:08:23;;;;;;;3.83;0.88;;;18.50;63.90;;;;;;5013540;28;20551;-85
2022/09/02 06:10:50;;;;;;;2.30;0.82;;;18.40;64.00;;;;;;4997286;28;20022;-85
2022/09/02 06:13:21;;;;;;;1.85;1.00;;;18.40;64.00;;;;;;4991144;28;20026;-85
2022/09/02 06:15:47;;;;;;;2.10;1.02;;;18.40;63.90;;;;;;5014509;28;20363;-85
2022/09/02 06:18:13;;;;;;;4.72;1.00;;;18.40;64.00;;;;;;5014551;28;20030;-85
2022/09/02 06:20:44;;;;;;;2.30;0.90;;;18.40;64.00;;;;;;4998081;28;20048;-90
2022/09/02 06:23:12;;;;;;;3.42;1.10;;;18.40;64.30;;;;;;5015104;28;20371;-90
2022/09/02 06:25:43;;;;;;;1.92;0.90;;;18.40;64.20;;;;;;5015055;28;20410;-89
2022/09/02 06:28:10;;;;;;;2.95;0.95;;;18.40;64.40;;;;;;5015166;28;20451;-90
2022/09/02 06:30:39;;;;;;;2.90;0.73;;;18.50;64.40;;;;;;5013523;28;20375;-89
2022/09/02 06:33:05;;;;;;;1.52;0.73;;;18.50;64.40;;;;;;5013931;28;20022;-89
2022/09/02 06:35:35;;;;;;;2.30;1.00;;;18.40;64.60;;;;;;4996727;28;20025;-84
2022/09/02 06:38:00;;;;;;;4.10;0.98;;;18.50;64.90;;;;;;4981347;28;20025;-84
2022/09/02 06:40:26;;;;;;;1.10;0.80;;;18.50;64.70;;;;;;4981144;28;20030;-89
2022/09/02 06:42:52;;;;;;;4.55;1.02;;;18.40;64.50;;;;;;4999108;28;20030;-88
2022/09/02 06:45:19;;;;;;;3.72;1.20;;;18.50;64.80;;;;;;4974077;28;20038;-89
2022/09/02 06:47:45;;;;;;;2.10;0.80;;;18.40;64.90;;;;;;5000072;28;20085;-88
2022/09/02 06:50:11;;;;;;;4.18;1.10;;;18.50;65.10;;;;;;5007041;28;20046;-86
2022/09/02 06:52:37;;;;;;;2.65;1.20;;;18.40;65.00;;;;;;4995251;28;20041;-85
2022/09/02 06:55:04;;;;;;;2.47;0.80;;;18.40;65.00;;;;;;5004698;28;20420;-85
2022/09/02 06:57:30;;;;;;;3.00;1.10;;;18.40;65.10;;;;;;5002531;28;20105;-86
2022/09/02 06:59:55;;;;;;;2.95;1.40;;;18.40;65.10;;;;;;4985811;28;20113;-86
2022/09/02 07:02:21;;;;;;;4.70;1.17;;;18.50;65.30;;;;;;4969374;28;20036;-86
2022/09/02 07:05:32;;;;;;;2.70;1.20;;;18.50;65.60;;;;;;4976836;28;20026;-86
2022/09/02 07:07:38;;;;;;;1.45;0.90;;;18.50;66.00;;;;;;4980688;28;20129;-86
2022/09/02 07:10:07;;;;;;;3.92;1.00;;;18.50;65.80;;;;;;5008119;28;20018;-88
2022/09/02 07:12:34;;;;;;;5.43;1.38;;;18.50;65.50;;;;;;5024791;28;20125;-87
2022/09/02 07:15:00;;;;;;;3.88;0.88;;;18.50;65.30;;;;;;4989183;28;20414;-88
2022/09/02 07:17:54;;;;;;;2.17;0.80;;;18.50;65.20;;;;;;5001814;28;20026;-88
2022/09/02 07:20:20;;;;;;;1.50;0.85;;;18.50;65.20;;;;;;5013960;28;20018;-88
2022/09/02 07:22:46;;;;;;;4.63;1.10;;;18.50;65.20;;;;;;4997258;28;20025;-84
2022/09/02 07:25:12;;;;;;;1.05;0.82;;;18.50;65.30;;;;;;4996182;28;20503;-84
2022/09/02 07:27:38;;;;;;;2.47;1.00;;;18.50;65.40;;;;;;5013522;28;20033;-88
2022/09/02 07:30:05;;;;;;;2.00;0.80;;;18.60;65.60;;;;;;5013542;28;20387;-85
2022/09/02 07:32:34;;;;;;;2.75;0.93;;;18.60;65.40;;;;;;5012889;28;20391;-87
2022/09/02 07:35:00;;;;;;;4.05;0.90;;;18.70;65.30;;;;;;5012334;28;20022;-85
2022/09/02 07:37:27;;;;;;;3.22;0.82;;;18.70;65.40;;;;;;4976529;28;20384;-85
2022/09/02 07:39:52;;;;;;;3.53;1.10;;;18.70;65.30;;;;;;5011132;28;20475;-85
2022/09/02 07:42:19;;;;;;;7.43;1.02;;;18.70;65.30;;;;;;5012811;28;20118;-85
2022/09/02 07:44:44;;;;;;;7.60;1.20;;;18.80;65.30;;;;;;5016090;28;20026;-84
2022/09/02 07:47:10;;;;;;;4.45;1.00;;;18.80;65.30;;;;;;4999611;28;20048;-86
2022/09/02 07:49:36;;;;;;;15.15;1.50;;;18.90;65.40;;;;;;4982506;28;20057;-85
2022/09/02 07:52:02;;;;;;;2.80;1.02;;;18.90;65.40;;;;;;5015169;28;20045;-87
2022/09/02 07:54:29;;;;;;;2.40;0.80;;;18.90;65.40;;;;;;5016360;28;20026;-88
2022/09/02 07:56:55;;;;;;;3.45;0.98;;;19.00;65.50;;;;;;5000686;28;20060;-87
2022/09/02 07:59:21;;;;;;;3.35;0.80;;;19.10;65.40;;;;;;4967674;28;20467;-82
2022/09/02 08:01:47;;;;;;;2.15;1.33;;;19.10;65.20;;;;;;5003679;28;20022;-82
2022/09/02 08:04:14;;;;;;;3.97;1.13;;;19.20;65.10;;;;;;5015646;28;20475;-82
2022/09/02 08:06:43;;;;;;;4.25;1.13;;;19.20;64.90;;;;;;4998963;28;20034;-86
2022/09/02 08:09:10;;;;;;;3.35;1.10;;;19.30;64.80;;;;;;5016361;28;20022;-87
2022/09/02 08:11:40;;;;;;;2.65;1.20;;;19.40;64.60;;;;;;5000168;28;20084;-87
2022/09/02 08:14:11;;;;;;;3.47;1.20;;;19.40;64.40;;;;;;5012883;28;20530;-87
2022/09/02 08:16:38;;;;;;;3.22;1.10;;;19.50;64.30;;;;;;5013519;28;20088;-87
2022/09/02 08:19:05;;;;;;;2.63;1.10;;;19.60;64.30;;;;;;5000146;28;20467;-86
2022/09/02 08:21:31;;;;;;;3.25;1.42;;;19.60;64.10;;;;;;5015726;28;20467;-85
2022/09/02 08:23:57;;;;;;;4.80;1.40;;;19.70;64.10;;;;;;4999930;28;20030;-88
2022/09/02 08:26:25;;;;;;;4.53;1.30;;;19.70;64.00;;;;;;5000237;28;20026;-87
2022/09/02 08:28:51;;;;;;;6.85;1.20;;;19.80;64.30;;;;;;4999737;28;20117;-88
2022/09/02 08:31:17;;;;;;;3.90;1.42;;;19.90;64.00;;;;;;4982369;28;20121;-88
2022/09/02 08:33:49;;;;;;;3.10;1.20;;;20.00;63.80;;;;;;5015041;28;20466;-88
2022/09/02 08:36:15;;;;;;;2.92;1.00;;;20.00;63.60;;;;;;4998247;28;20030;-87
2022/09/02 08:38:41;;;;;;;3.50;1.30;;;20.10;63.60;;;;;;5015374;28;20018;-87
2022/09/02 08:41:25;;;;;;;3.30;1.40;;;20.20;63.60;;;;;;4998999;28;20014;-87
2022/09/02 08:47:17;;;;;;;7.22;1.60;;;20.30;63.30;;;;;;5015771;28;20080;-87
2022/09/02 08:49:50;;;;;;;3.58;1.40;;;20.40;63.30;;;;;;5016545;28;20064;-86
2022/09/02 08:52:47;;;;;;;3.30;1.33;;;20.40;63.90;;;;;;5016160;28;20121;-87
2022/09/02 08:55:18;;;;;;;5.88;1.30;;;20.50;63.80;;;;;;5006999;28;20042;-87
2022/09/02 08:57:44;;;;;;;;;;;20.50;63.80;;;;;;5002697;28;20025;-87
2022/09/02 09:00:10;;;;;;;3.45;1.17;;;20.60;64.20;;;;;;4998766;28;20355;-88
2022/09/02 09:02:58;;;;;;;5.50;1.42;;;20.60;64.10;;;;;;5013749;28;20364;-84
2022/09/02 09:05:51;;;;;;;3.25;1.20;;;20.70;64.20;;;;;;4998097;28;20501;-84
2022/09/02 09:08:38;;;;;;;3.45;1.60;;;20.80;64.10;;;;;;4987640;28;20126;-84
2022/09/02 09:11:41;;;;;;;3.25;1.20;;;20.80;64.00;;;;;;4998071;28;20061;-84
2022/09/02 09:14:19;;;;;;;4.45;1.20;;;20.90;63.80;;;;;;4939485;28;20573;-84
2022/09/02 09:16:58;;;;;;;2.95;1.00;;;20.90;63.70;;;;;;4998033;28;20014;-84
2022/09/02 09:19:29;;;;;;;3.88;1.30;;;21.00;63.70;;;;;;4997969;28;20026;-84
2022/09/02 09:21:56;;;;;;;;;;;21.10;63.80;;;;;;4998289;28;20163;-84
2022/09/02 09:24:39;;;;;;;4.97;1.42;;;21.20;63.60;;;;;;4997946;28;19913;-83
2022/09/02 09:27:16;;;;;;;4.72;2.20;;;21.20;63.60;;;;;;5014212;28;20050;-83
2022/09/02 09:29:43;;;;;;;5.72;1.90;;;21.30;63.50;;;;;;5012466;28;20479;-83
2022/09/02 09:32:26;;;;;;;6.25;2.45;;;21.30;63.60;;;;;;5013690;28;20057;-82
2022/09/02 09:34:52;;;;;;;4.20;1.27;;;21.40;63.60;;;;;;4997714;28;20108;-88
2022/09/02 09:37:36;;;;;;;5.82;1.40;;;21.50;63.50;;;;;;5015606;28;20056;-82
2022/09/02 09:40:27;;;;;;;3.10;1.65;;;21.60;63.30;;;;;;5013865;28;20022;-83
2022/09/02 09:42:59;;;;;;;4.35;1.42;;;21.60;63.00;;;;;;5015544;28;20066;-87
2022/09/02 09:45:34;;;;;;;3.70;1.50;;;21.70;63.00;;;;;;4997800;28;20040;-82
2022/09/02 09:48:26;;;;;;;2.63;1.40;;;21.80;62.60;;;;;;4996655;28;20540;-83
2022/09/02 09:50:55;;;;;;;2.80;1.20;;;21.90;62.30;;;;;;4995437;28;20117;-82
2022/09/02 09:53:23;;;;;;;2.38;1.40;;;22.00;62.40;;;;;;5010374;28;20103;-86
2022/09/02 09:56:03;;;;;;;2.40;1.40;;;22.00;62.60;;;;;;4994177;28;20113;-84
2022/09/02 09:58:39;;;;;;;7.65;1.60;;;22.10;62.20;;;;;;5010249;28;20030;-83
2022/09/02 10:01:18;;;;;;;4.18;1.45;;;22.20;62.50;;;;;;4994572;28;20014;-83
2022/09/02 10:04:12;;;;;;;3.78;1.60;;;22.30;62.60;;;;;;5016158;28;20025;-83
2022/09/02 10:06:42;;;;;;;3.67;1.25;;;22.40;62.20;;;;;;5012841;28;20029;-84
2022/09/02 10:09:17;;;;;;;2.97;1.30;;;22.40;62.00;;;;;;4994508;28;20030;-84
2022/09/02 10:12:21;;;;;;;2.65;1.50;;;22.50;61.70;;;;;;5009164;28;20030;-84
2022/09/02 10:14:48;;;;;;;6.25;1.70;;;22.60;61.60;;;;;;4998699;28;20041;-84
2022/09/02 10:17:44;;;;;;;3.63;1.33;;;22.70;61.60;;;;;;4996612;28;20041;-84
2022/09/02 10:20:34;;;;;;;4.90;1.85;;;22.70;61.60;;;;;;5011671;28;20112;-83
2022/09/02 10:23:37;;;;;;;4.07;1.45;;;22.80;61.30;;;;;;5015094;28;20033;-83
2022/09/02 10:26:17;;;;;;;3.78;1.23;;;22.90;61.00;;;;;;4995470;28;20057;-84
2022/09/02 10:29:00;;;;;;;3.30;1.40;;;23.00;60.80;;;;;;5003706;28;20026;-84
2022/09/02 10:32:02;;;;;;;2.47;1.20;;;23.10;60.70;;;;;;5015670;28;20072;-84
2022/09/02 10:34:56;;;;;;;4.90;1.45;;;23.20;60.70;;;;;;5005091;28;20030;-85
2022/09/02 10:37:42;;;;;;;5.07;1.38;;;23.20;60.70;;;;;;4999580;28;20113;-87
2022/09/02 10:40:15;;;;;;;5.68;1.40;;;23.30;60.60;;;;;;5003200;28;20042;-88
2022/09/02 10:43:04;;;;;;;6.95;1.40;;;23.40;60.40;;;;;;5013419;28;20024;-86
2022/09/02 10:45:48;;;;;;;3.45;1.27;;;23.50;60.30;;;;;;5010623;28;20467;-88
2022/09/02 10:48:42;;;;;;;4.15;1.70;;;23.60;60.50;;;;;;5007863;28;20113;-90
2022/09/02 10:51:43;;;;;;;2.67;1.40;;;23.70;60.40;;;;;;4984743;28;20487;-90
2022/09/02 10:54:18;;;;;;;;;;;23.80;60.60;;;;;;5011121;28;20133;-89
2022/09/02 10:56:58;;;;;;;4.70;1.30;;;23.80;61.10;;;;;;5013745;28;19905;-87
2022/09/02 10:59:34;;;;;;;2.53;1.40;;;23.90;60.10;;;;;;5013778;28;20040;-89
2022/09/02 11:02:12;;;;;;;2.83;1.20;;;24.00;59.70;;;;;;4997498;28;20018;-89
2022/09/02 11:05:06;;;;;;;6.05;1.63;;;24.10;60.10;;;;;;4984085;28;20022;-88
2022/09/02 11:07:53;;;;;;;2.45;1.45;;;24.20;59.70;;;;;;5033382;23;20069;-77
2022/09/02 11:10:26;;;;;;;3.88;1.50;;;24.30;59.80;;;;;;4995590;28;20040;-77
2022/09/02 11:13:41;;;;;;;4.57;1.55;;;24.30;60.10;;;;;;5012873;28;20462;-77
2022/09/02 11:16:15;;;;;;;2.22;1.60;;;24.50;59.30;;;;;;4961623;28;20051;-77
2022/09/02 11:18:56;;;;;;;4.07;1.58;;;24.60;58.60;;;;;;5012493;28;20022;-77
2022/09/02 11:22:00;;;;;;;3.45;1.30;;;24.60;58.00;;;;;;4993844;28;20018;-76
2022/09/02 11:24:43;;;;;;;3.40;1.48;;;24.80;57.90;;;;;;5012794;28;20104;-77
2022/09/02 11:27:11;;;;;;;2.13;1.33;;;24.90;57.70;;;;;;4995508;28;20042;-79
2022/09/02 11:29:55;;;;;;;6.18;1.63;;;25.00;57.50;;;;;;5012504;28;20036;-78
2022/09/02 11:32:42;;;;;;;2.70;1.63;;;25.10;57.60;;;;;;5011233;28;20117;-77
2022/09/02 11:35:18;;;;;;;4.93;1.77;;;25.20;56.60;;;;;;5012486;28;20045;-85
2022/09/02 11:38:00;;;;;;;2.45;1.40;;;25.30;56.80;;;;;;4990506;28;20029;-87
2022/09/02 11:44:00;;;;;;;3.33;1.52;;;25.50;56.10;;;;;;4997419;28;20433;-88
2022/09/02 11:46:34;;;;;;;1.95;1.23;;;25.60;54.70;;;;;;4900989;29;20457;-88
2022/09/02 11:49:28;;;;;;;;;;;;;;;;;;;;;
2022/09/02 11:52:23;;;;;;;3.25;1.35;;;25.80;54.40;;;;;;4988206;28;20045;-83
2022/09/02 11:55:23;;;;;;;4.22;1.45;;;25.80;54.20;;;;;;5006548;28;20492;-83
2022/09/02 11:57:56;;;;;;;3.00;1.80;;;25.90;54.10;;;;;;5003160;28;20034;-82
2022/09/02 12:00:59;;;;;;;3.67;1.58;;;26.00;54.40;;;;;;5014484;28;20030;-94
2022/09/02 12:03:28;;;;;;;2.30;1.33;;;26.10;54.10;;;;;;5016866;28;20026;-95
2022/09/02 12:06:09;;;;;;;4.22;1.30;;;26.20;54.00;;;;;;5001027;28;20021;-95
2022/09/02 12:08:35;;;;;;;6.90;1.77;;;26.30;55.20;;;;;;5013662;28;20053;-96
2022/09/02 12:11:05;;;;;;;3.75;1.52;;;26.30;54.00;;;;;;5008076;28;20030;-95
2022/09/02 12:13:43;;;;;;;3.30;1.35;;;26.40;53.20;;;;;;5018956;28;20026;-95
2022/09/02 12:16:15;;;;;;;3.22;1.40;;;26.40;52.80;;;;;;5003592;28;20026;-90
2022/09/02 12:19:06;;;;;;;4.35;1.38;;;26.50;52.40;;;;;;5010034;28;20086;-94
2022/09/02 12:21:37;;;;;;;2.78;1.45;;;26.60;50.50;;;;;;5015707;28;20088;-94
2022/09/02 12:24:19;;;;;;;3.35;1.17;;;26.60;48.60;;;;;;5003432;23;20058;-80
2022/09/02 12:26:44;;;;;;;4.10;1.60;;;26.60;48.70;;;;;;4991982;28;20038;-81
2022/09/02 12:29:20;;;;;;;5.47;1.45;;;26.60;49.50;;;;;;4994473;28;20038;-80
2022/09/02 12:31:51;;;;;;;2.95;1.35;;;26.70;49.40;;;;;;5015599;28;20026;-81
2022/09/02 12:34:19;;;;;;;3.70;1.38;;;26.80;49.90;;;;;;4988522;28;20092;-81
2022/09/02 12:36:55;;;;;;;3.63;1.67;;;26.80;49.90;;;;;;4979905;28;20486;-80
2022/09/02 12:39:26;;;;;;;4.57;1.63;;;26.90;50.40;;;;;;4995601;28;20077;-81
2022/09/02 12:42:22;;;;;;;3.22;1.60;;;27.00;50.70;;;;;;4981389;28;20057;-80
2022/09/02 12:44:56;;;;;;;3.08;1.98;;;27.10;50.50;;;;;;5009325;28;20057;-81
2022/09/02 12:47:43;;;;;;;1.67;1.45;;;27.20;50.40;;;;;;5008365;28;20073;-80
2022/09/02 12:51:01;;;;;;;4.32;1.50;;;27.20;50.50;;;;;;4993807;28;20034;-80
2022/09/02 12:53:33;;;;;;;3.03;1.60;;;27.30;50.20;;;;;;4997292;28;20471;-81
2022/09/02 12:56:23;;;;;;;3.45;1.50;;;27.40;50.20;;;;;;4986858;28;20028;-80
2022/09/02 12:58:54;;;;;;;1.63;1.50;;;27.50;49.90;;;;;;4981725;28;20025;-81
2022/09/02 13:01:57;;;;;;;2.67;1.40;;;27.60;49.30;;;;;;5006205;28;20029;-80
2022/09/02 13:04:45;;;;;;;2.30;1.25;;;27.60;48.60;;;;;;5007936;28;20031;-80
2022/09/02 13:07:37;;;;;;;3.58;1.50;;;27.70;48.70;;;;;;4991477;28;20030;-80
2022/09/02 13:10:11;;;;;;;2.50;1.50;;;27.70;48.60;;;;;;4985977;28;20034;-80
2022/09/02 13:13:48;;;;;;;2.97;1.52;;;27.80;48.00;;;;;;4995773;28;20121;-80
2022/09/02 13:16:44;;;;;;;7.10;1.67;;;27.80;48.10;;;;;;4894847;29;20146;-80
2022/09/02 13:19:27;;;;;;;5.65;1.83;;;27.80;48.20;;;;;;4882904;29;20092;-80
2022/09/02 13:22:20;;;;;;;4.15;1.58;;;27.80;47.20;;;;;;4944153;28;20035;-80
2022/09/02 13:25:11;;;;;;;3.10;1.58;;;27.70;47.00;;;;;;4938541;28;20041;-80
2022/09/02 13:27:58;;;;;;;6.40;1.75;;;27.60;47.00;;;;;;4950190;29;20027;-80
2022/09/02 13:30:48;;;;;;;4.38;1.67;;;27.60;47.40;;;;;;4967394;28;20034;-79